createdAt,value
2022-10-23T00:01:33.264Z,2.55
2022-10-23T00:04:17.628Z,6.32
2022-10-23T00:06:45.755Z,6.43
2022-10-23T00:09:16.762Z,4.50
2022-10-23T00:11:47.409Z,2.95
2022-10-23T00:14:16.331Z,2.13
2022-10-23T00:16:43.415Z,2.40
2022-10-23T00:19:10.988Z,4.97
2022-10-23T00:21:39.285Z,6.47
2022-10-23T00:24:06.954Z,8.07
2022-10-23T00:26:34.193Z,3.85
2022-10-23T00:29:01.281Z,6.38
2022-10-23T00:31:28.353Z,5.15
2022-10-23T00:33:55.461Z,10.18
2022-10-23T00:36:22.643Z,4.88
2022-10-23T00:38:50.906Z,4.57
2022-10-23T00:41:22.664Z,4.18
2022-10-23T00:44:00.729Z,5.78
2022-10-23T00:46:28.116Z,4.80
2022-10-23T00:48:55.823Z,7.55
2022-10-23T00:51:24.576Z,4.70
2022-10-23T00:54:06.482Z,8.48
2022-10-23T00:56:45.929Z,6.20
2022-10-23T00:59:13.260Z,5.72
2022-10-23T01:01:40.579Z,2.17
2022-10-23T01:04:08.538Z,3.28
2022-10-23T01:06:51.797Z,2.03
2022-10-23T01:09:27.151Z,12.90
2022-10-23T01:11:59.408Z,3.80
2022-10-23T01:14:37.575Z,1.40
2022-10-23T01:17:23.576Z,8.13
2022-10-23T01:20:14.195Z,5.10
2022-10-23T01:22:44.413Z,2.30
2022-10-23T01:25:34.222Z,4.43
2022-10-23T01:28:06.173Z,5.53
2022-10-23T01:30:34.079Z,3.42
2022-10-23T01:33:08.233Z,2.70
2022-10-23T01:35:49.085Z,6.25
2022-10-23T01:38:37.919Z,5.95
2022-10-23T01:41:23.307Z,3.80
2022-10-23T01:43:59.963Z,4.20
2022-10-23T01:46:32.209Z,4.80
2022-10-23T01:49:01.019Z,3.05
2022-10-23T01:51:30.748Z,11.13
2022-10-23T01:54:07.735Z,5.63
2022-10-23T01:56:39.302Z,6.30
2022-10-23T01:59:13.140Z,9.40
2022-10-23T02:01:45.458Z,5.13
2022-10-23T02:04:19.467Z,1.98
2022-10-23T02:06:46.646Z,2.55
2022-10-23T02:09:13.877Z,2.85
2022-10-23T02:11:52.485Z,7.43
2022-10-23T02:14:51.324Z,4.97
2022-10-23T02:17:32.202Z,3.75
2022-10-23T02:20:17.167Z,2.30
2022-10-23T02:22:55.568Z,2.25
2022-10-23T02:25:38.649Z,2.15
2022-10-23T02:28:10.539Z,4.18
2022-10-23T02:30:47.083Z,2.80
2022-10-23T02:33:15.013Z,4.20
2022-10-23T02:35:42.572Z,4.35
2022-10-23T02:38:40.391Z,2.80
2022-10-23T02:41:18.074Z,2.30
2022-10-23T02:44:02.422Z,4.30
2022-10-23T02:46:44.667Z,7.57
2022-10-23T02:49:18.923Z,4.30
2022-10-23T02:51:58.250Z,2.75
2022-10-23T02:55:13.987Z,5.32
2022-10-23T02:58:01.771Z,1.50
2022-10-23T03:00:32.703Z,2.22
2022-10-23T03:03:15.071Z,1.58
2022-10-23T03:05:44.894Z,1.42
2022-10-23T03:08:15.230Z,3.83
2022-10-23T03:10:43.031Z,3.92
2022-10-23T03:13:11.498Z,6.40
2022-10-23T03:15:44.006Z,2.40
2022-10-23T03:18:15.312Z,3.70
2022-10-23T03:20:47.352Z,4.93
2022-10-23T03:23:15.157Z,3.53
2022-10-23T03:25:43.119Z,1.98
2022-10-23T03:28:11.229Z,5.15
2022-10-23T03:30:38.768Z,8.38
2022-10-23T03:33:05.893Z,3.97
2022-10-23T03:35:35.671Z,5.75
2022-10-23T03:38:03.381Z,2.25
2022-10-23T03:40:30.621Z,3.90
2022-10-23T03:42:57.869Z,4.78
2022-10-23T03:45:25.009Z,3.92
2022-10-23T03:47:52.194Z,6.78
2022-10-23T03:50:20.042Z,2.75
2022-10-23T03:52:47.866Z,2.73
2022-10-23T03:55:15.049Z,2.17
2022-10-23T03:57:42.418Z,4.07
2022-10-23T04:00:10.575Z,3.22
2022-10-23T04:02:44.318Z,5.07
2022-10-23T04:05:12.123Z,4.07
2022-10-23T04:07:41.354Z,4.72
2022-10-23T04:10:08.910Z,2.13
2022-10-23T04:12:36.121Z,5.13
2022-10-23T04:15:03.570Z,2.85
2022-10-23T04:17:30.622Z,1.80
2022-10-23T04:19:57.780Z,2.60
2022-10-23T04:22:27.607Z,1.60
2022-10-23T04:24:56.147Z,1.98
2022-10-23T04:27:23.438Z,1.75
2022-10-23T04:29:53.193Z,3.33
2022-10-23T04:32:22.661Z,1.77
2022-10-23T04:34:49.794Z,6.70
2022-10-23T04:37:16.893Z,1.25
2022-10-23T04:39:44.864Z,3.20
2022-10-23T04:42:14.175Z,2.38
2022-10-23T04:44:41.263Z,3.00
2022-10-23T04:47:08.524Z,2.10
2022-10-23T04:49:44.471Z,2.15
2022-10-23T04:52:20.375Z,5.78
2022-10-23T04:55:04.871Z,3.15
2022-10-23T04:57:41.355Z,3.08
2022-10-23T05:00:12.768Z,1.73
2022-10-23T05:02:50.941Z,2.03
2022-10-23T05:05:18.422Z,1.10
2022-10-23T05:07:58.606Z,1.63
2022-10-23T05:10:57.882Z,1.20
2022-10-23T05:13:25.057Z,4.45
2022-10-23T05:15:53.284Z,2.88
2022-10-23T05:18:29.566Z,6.68
2022-10-23T05:21:06.430Z,3.53
2022-10-23T05:23:35.063Z,1.30
2022-10-23T05:28:31.948Z,4.45
2022-10-23T05:31:02.717Z,0.73
2022-10-23T05:33:30.795Z,3.50
2022-10-23T05:35:58.721Z,3.10
2022-10-23T05:38:27.778Z,1.13
2022-10-23T05:40:55.301Z,1.47
2022-10-23T05:43:23.790Z,2.07
2022-10-23T05:45:58.387Z,4.32
2022-10-23T05:48:50.111Z,3.75
2022-10-23T05:51:40.348Z,2.55
2022-10-23T05:54:27.677Z,2.03
2022-10-23T05:57:22.748Z,2.25
2022-10-23T05:59:51.989Z,1.88
2022-10-23T06:02:23.852Z,9.80
2022-10-23T06:04:56.947Z,6.20
2022-10-23T06:07:36.237Z,4.68
2022-10-23T06:10:06.567Z,1.92
2022-10-23T06:12:39.363Z,1.75
2022-10-23T06:15:07.231Z,1.98
2022-10-23T06:17:54.083Z,2.17
2022-10-23T06:20:25.278Z,4.47
2022-10-23T06:23:05.072Z,5.93
2022-10-23T06:25:54.561Z,1.63
2022-10-23T06:28:27.426Z,1.95
2022-10-23T06:30:54.794Z,4.72
2022-10-23T06:33:21.900Z,10.07
2022-10-23T06:35:49.772Z,6.63
2022-10-23T06:38:17.474Z,1.80
2022-10-23T06:40:56.643Z,4.15
2022-10-23T06:43:33.533Z,5.72
2022-10-23T06:46:22.723Z,0.82
2022-10-23T06:49:16.402Z,2.00
2022-10-23T06:51:48.711Z,0.88
2022-10-23T06:54:17.528Z,5.15
2022-10-23T06:56:51.173Z,2.05
2022-10-23T06:59:22.527Z,2.50
2022-10-23T07:01:51.887Z,1.85
2022-10-23T07:04:19.128Z,5.63
2022-10-23T07:06:46.304Z,1.95
2022-10-23T07:09:13.485Z,3.38
2022-10-23T07:12:00.783Z,5.53
2022-10-23T07:14:36.092Z,2.60
2022-10-23T07:17:03.718Z,3.28
2022-10-23T07:19:30.917Z,1.88
2022-10-23T07:22:01.139Z,2.17
2022-10-23T07:24:54.355Z,1.60
2022-10-23T07:27:26.873Z,3.60
2022-10-23T07:29:56.734Z,1.52
2022-10-23T07:32:24.650Z,1.48
2022-10-23T07:35:12.290Z,2.70
2022-10-23T07:37:43.658Z,2.45
2022-10-23T07:40:11.573Z,5.05
2022-10-23T07:42:43.967Z,2.70
2022-10-23T07:45:12.463Z,4.10
2022-10-23T07:47:42.649Z,3.22
2022-10-23T07:50:13.073Z,3.17
2022-10-23T07:52:40.239Z,4.07
2022-10-23T07:55:12.247Z,5.68
2022-10-23T07:57:46.407Z,0.90
2022-10-23T08:01:02.745Z,4.88
2022-10-23T08:03:35.668Z,2.72
2022-10-23T08:06:03.709Z,3.20
2022-10-23T08:08:31.545Z,10.65
2022-10-23T08:11:03.344Z,3.95
2022-10-23T08:13:39.356Z,2.83
2022-10-23T08:16:07.376Z,5.45
2022-10-23T08:19:05.025Z,1.77
2022-10-23T08:21:32.612Z,4.75
2022-10-23T08:24:01.197Z,5.03
2022-10-23T08:26:29.447Z,3.85
2022-10-23T08:28:59.399Z,3.08
2022-10-23T08:31:27.375Z,4.57
2022-10-23T08:34:15.489Z,3.20
2022-10-23T08:36:44.903Z,2.35
2022-10-23T08:39:12.365Z,0.88
2022-10-23T08:41:50.554Z,4.22
2022-10-23T08:44:32.411Z,7.28
2022-10-23T08:47:02.119Z,7.18
2022-10-23T08:49:53.438Z,4.70
2022-10-23T08:52:35.162Z,1.73
2022-10-23T08:55:17.341Z,2.92
2022-10-23T08:57:58.174Z,4.50
2022-10-23T09:00:25.271Z,5.05
2022-10-23T09:02:53.962Z,4.03
2022-10-23T09:05:27.654Z,4.90
2022-10-23T09:08:19.721Z,5.70
2022-10-23T09:11:06.495Z,9.95
2022-10-23T09:13:55.228Z,3.75
2022-10-23T09:16:40.729Z,5.93
2022-10-23T09:19:22.213Z,5.28
2022-10-23T09:21:50.026Z,6.80
2022-10-23T09:24:19.855Z,3.80
2022-10-23T09:26:49.559Z,3.53
2022-10-23T09:29:25.045Z,5.93
2022-10-23T09:32:00.999Z,3.83
2022-10-23T09:34:30.578Z,10.77
2022-10-23T09:37:21.365Z,7.60
2022-10-23T09:39:48.853Z,4.75
2022-10-23T09:42:24.110Z,5.38
2022-10-23T09:44:53.709Z,5.90
2022-10-23T09:47:24.347Z,4.65
2022-10-23T09:49:53.833Z,5.25
2022-10-23T09:52:34.833Z,3.30
2022-10-23T09:55:15.497Z,13.32
2022-10-23T09:57:44.422Z,7.18
2022-10-23T10:00:17.012Z,5.55
2022-10-23T10:02:57.325Z,6.47
2022-10-23T10:05:38.273Z,3.95
2022-10-23T10:08:32.342Z,8.50
2022-10-23T10:11:13.121Z,15.85
2022-10-23T10:13:55.735Z,6.88
2022-10-23T10:16:32.497Z,4.78
2022-10-23T10:19:31.287Z,5.57
2022-10-23T10:22:34.468Z,2.80
2022-10-23T10:25:28.931Z,6.65
2022-10-23T10:28:10.844Z,6.63
2022-10-23T10:30:56.484Z,7.43
2022-10-23T10:33:39.705Z,9.68
2022-10-23T10:36:31.434Z,8.95
2022-10-23T10:39:03.840Z,7.60
2022-10-23T10:41:55.847Z,4.32
2022-10-23T10:45:17.795Z,3.70
2022-10-23T10:48:08.803Z,8.02
2022-10-23T10:51:03.795Z,5.90
2022-10-23T10:54:04.202Z,6.28
2022-10-23T10:56:35.218Z,10.60
2022-10-23T10:59:16.202Z,9.32
2022-10-23T11:01:50.742Z,5.38
2022-10-23T11:04:39.361Z,7.45
2022-10-23T11:07:15.314Z,3.88
2022-10-23T11:09:43.214Z,4.80
2022-10-23T11:12:36.321Z,6.82
2022-10-23T11:15:03.570Z,16.65
2022-10-23T11:17:39.917Z,9.63
2022-10-23T11:20:36.401Z,8.50
2022-10-23T11:23:16.619Z,7.93
2022-10-23T11:25:49.616Z,6.90
2022-10-23T11:28:42.687Z,11.65
2022-10-23T11:31:39.103Z,8.65
2022-10-23T11:34:31.830Z,11.00
2022-10-23T11:37:01.575Z,9.93
2022-10-23T11:39:30.984Z,6.90
2022-10-23T11:42:05.326Z,13.15
2022-10-23T11:44:48.246Z,3.35
2022-10-23T11:47:39.607Z,6.78
2022-10-23T11:50:07.366Z,11.25
2022-10-23T11:52:50.314Z,8.57
2022-10-23T11:55:29.956Z,7.00
2022-10-23T11:58:12.273Z,7.88
2022-10-23T12:00:49.496Z,8.73
2022-10-23T12:03:25.860Z,9.90
2022-10-23T12:06:06.425Z,3.55
2022-10-23T12:08:40.742Z,8.93
2022-10-23T12:11:27.576Z,5.47
2022-10-23T12:13:55.110Z,12.43
2022-10-23T12:16:22.199Z,5.55
2022-10-23T12:18:53.872Z,8.90
2022-10-23T12:21:28.218Z,9.40
2022-10-23T12:24:13.759Z,7.18
2022-10-23T12:27:05.792Z,10.18
2022-10-23T12:30:04.961Z,10.02
2022-10-23T12:32:44.819Z,15.50
2022-10-23T12:35:18.284Z,11.60
2022-10-23T12:37:58.254Z,16.00
2022-10-23T12:40:30.068Z,7.68
2022-10-23T12:42:59.761Z,8.07
2022-10-23T12:45:40.250Z,8.82
2022-10-23T12:48:22.435Z,9.60
2022-10-23T12:50:51.779Z,9.27
2022-10-23T12:53:20.816Z,8.25
2022-10-23T12:58:35.157Z,6.50
2022-10-23T13:01:07.048Z,9.13
2022-10-23T13:06:03.009Z,13.30
2022-10-23T13:08:38.891Z,10.93
2022-10-23T13:11:26.553Z,10.52
2022-10-23T13:13:56.059Z,6.15
2022-10-23T13:16:25.287Z,10.48
2022-10-23T13:21:22.461Z,8.75
2022-10-23T13:23:50.600Z,8.33
2022-10-23T13:26:31.083Z,9.55
2022-10-23T13:28:59.418Z,9.90
2022-10-23T13:31:29.483Z,13.20
2022-10-23T13:33:59.420Z,8.90
2022-10-23T13:36:29.015Z,7.72
2022-10-23T13:39:02.394Z,8.40
2022-10-23T13:41:44.487Z,9.75
2022-10-23T13:44:13.652Z,11.18
2022-10-23T13:46:41.701Z,14.85
2022-10-23T13:49:08.820Z,15.10
2022-10-23T13:51:44.075Z,6.90
2022-10-23T13:54:30.624Z,12.18
2022-10-23T13:56:57.836Z,12.65
2022-10-23T13:59:24.971Z,11.55
2022-10-23T14:01:52.497Z,7.75
2022-10-23T14:04:20.325Z,7.45
2022-10-23T14:06:47.920Z,6.28
2022-10-23T14:09:17.746Z,9.13
2022-10-23T14:11:45.292Z,10.98
2022-10-23T14:14:12.581Z,15.85
2022-10-23T14:16:40.911Z,16.10
2022-10-23T14:19:08.629Z,17.70
2022-10-23T14:21:35.939Z,9.40
2022-10-23T14:24:02.979Z,18.25
2022-10-23T14:26:30.379Z,15.60
2022-10-23T14:29:00.679Z,42.58
2022-10-23T14:31:31.603Z,13.52
2022-10-23T14:34:00.612Z,11.88
2022-10-23T14:36:38.287Z,9.95
2022-10-23T14:39:15.958Z,18.03
2022-10-23T14:41:43.072Z,15.32
2022-10-23T14:44:10.177Z,11.20
2022-10-23T14:46:38.245Z,12.32
2022-10-23T14:49:06.225Z,20.05
2022-10-23T14:51:33.624Z,20.60
2022-10-23T14:54:03.220Z,13.27
2022-10-23T14:56:32.755Z,14.68
2022-10-23T14:59:03.168Z,10.30
2022-10-23T15:01:43.687Z,15.52
2022-10-23T15:04:15.061Z,16.00
2022-10-23T15:06:43.347Z,22.27
2022-10-23T15:09:10.441Z,14.13
2022-10-23T15:11:37.546Z,21.05
2022-10-23T15:14:04.733Z,15.65
2022-10-23T15:16:32.296Z,25.55
2022-10-23T15:18:59.384Z,17.63
2022-10-23T15:21:26.426Z,14.48
2022-10-23T15:23:54.729Z,23.38
2022-10-23T15:26:23.110Z,29.83
2022-10-23T15:29:00.449Z,28.27
2022-10-23T15:31:30.625Z,20.13
2022-10-23T15:33:58.259Z,14.15
2022-10-23T15:36:25.915Z,33.72
2022-10-23T15:38:52.992Z,17.35
2022-10-23T15:41:46.557Z,22.80
2022-10-23T15:44:16.417Z,22.52
2022-10-23T15:46:43.988Z,27.02
2022-10-23T15:49:11.794Z,18.60
2022-10-23T15:51:39.547Z,29.13
2022-10-23T15:54:08.861Z,29.85
2022-10-23T15:59:03.336Z,22.70
2022-10-23T16:01:30.594Z,28.95
2022-10-23T16:03:57.722Z,19.15
2022-10-23T16:06:24.891Z,19.65
2022-10-23T16:11:27.098Z,19.45
2022-10-23T16:13:55.464Z,26.38
2022-10-23T16:16:22.745Z,24.70
2022-10-23T16:18:50.070Z,22.83
2022-10-23T16:21:25.982Z,27.60
2022-10-23T16:23:56.689Z,17.88
2022-10-23T16:26:24.403Z,19.98
2022-10-23T16:28:56.216Z,22.20
2022-10-23T16:31:25.233Z,25.75
2022-10-23T16:33:53.664Z,25.17
2022-10-23T16:36:21.403Z,34.03
2022-10-23T16:39:08.809Z,21.05
2022-10-23T16:41:54.532Z,22.77
2022-10-23T16:44:24.604Z,12.70
2022-10-23T16:46:57.563Z,19.83
2022-10-23T16:49:24.800Z,21.08
2022-10-23T16:51:51.844Z,23.33
2022-10-23T16:54:19.113Z,23.08
2022-10-23T16:56:47.198Z,20.35
2022-10-23T16:59:14.306Z,20.75
2022-10-23T17:01:41.433Z,23.80
2022-10-23T17:04:08.715Z,24.23
2022-10-23T17:06:36.599Z,37.20
2022-10-23T17:09:04.823Z,18.55
2022-10-23T17:11:35.545Z,26.10
2022-10-23T17:14:08.387Z,21.10
2022-10-23T17:17:04.066Z,26.13
2022-10-23T17:19:47.099Z,24.90
2022-10-23T17:22:14.932Z,25.20
2022-10-23T17:24:44.201Z,30.60
2022-10-23T17:27:13.446Z,29.75
2022-10-23T17:29:40.776Z,17.63
2022-10-23T17:32:07.962Z,27.05
2022-10-23T17:34:35.141Z,24.65
2022-10-23T17:37:02.241Z,19.40
2022-10-23T17:39:29.873Z,24.50
2022-10-23T17:41:57.109Z,23.85
2022-10-23T17:44:24.217Z,38.22
2022-10-23T17:46:53.684Z,19.92
2022-10-23T17:49:22.060Z,22.25
2022-10-23T17:51:52.680Z,18.42
2022-10-23T17:54:19.781Z,27.30
2022-10-23T17:56:46.854Z,24.05
2022-10-23T17:59:17.326Z,25.48
2022-10-23T18:01:46.785Z,15.55
2022-10-23T18:04:14.704Z,22.23
2022-10-23T18:06:44.955Z,30.75
2022-10-23T18:09:12.487Z,18.10
2022-10-23T18:11:46.853Z,18.92
2022-10-23T18:14:16.775Z,15.52
2022-10-23T18:16:45.404Z,14.48
2022-10-23T18:19:13.017Z,8.63
2022-10-23T18:21:40.194Z,15.55
2022-10-23T18:24:07.706Z,10.45
2022-10-23T18:26:37.542Z,12.90
2022-10-23T18:29:07.607Z,17.75
2022-10-23T18:31:44.602Z,13.20
2022-10-23T18:34:18.544Z,12.95
2022-10-23T18:36:45.906Z,12.30
2022-10-23T18:39:16.034Z,8.30
2022-10-23T18:41:45.037Z,9.80
2022-10-23T18:44:17.312Z,15.07
2022-10-23T18:46:48.236Z,19.92
2022-10-23T18:49:18.058Z,14.20
2022-10-23T18:51:45.653Z,14.88
2022-10-23T18:54:14.759Z,13.30
2022-10-23T18:56:42.453Z,11.85
2022-10-23T18:59:20.489Z,10.07
2022-10-23T19:01:48.306Z,10.45
2022-10-23T19:04:17.746Z,9.25
2022-10-23T19:06:46.610Z,8.07
2022-10-23T19:09:13.890Z,12.20
2022-10-23T19:11:42.537Z,6.40
2022-10-23T19:14:09.847Z,8.57
2022-10-23T19:16:59.047Z,10.25
2022-10-23T19:19:30.762Z,5.00
2022-10-23T19:21:58.813Z,8.57
2022-10-23T19:24:31.956Z,6.55
2022-10-23T19:27:01.383Z,11.27
2022-10-23T19:31:56.305Z,4.30
2022-10-23T19:34:25.025Z,9.43
2022-10-23T19:36:53.600Z,6.53
2022-10-23T19:39:20.743Z,7.47
2022-10-23T19:41:48.124Z,9.35
2022-10-23T19:44:15.222Z,7.07
2022-10-23T19:46:42.320Z,7.95
2022-10-23T19:49:10.268Z,9.73
2022-10-23T19:51:37.996Z,17.80
2022-10-23T19:54:05.716Z,5.95
2022-10-23T19:56:32.802Z,4.32
2022-10-23T19:59:00.136Z,7.88
2022-10-23T20:01:27.469Z,8.60
2022-10-23T20:03:57.409Z,10.85
2022-10-23T20:06:27.346Z,7.18
2022-10-23T20:08:54.914Z,9.80
2022-10-23T20:11:28.138Z,11.52
2022-10-23T20:13:56.255Z,12.55
2022-10-23T20:16:29.590Z,10.48
2022-10-23T20:18:57.215Z,9.70
2022-10-23T20:21:25.425Z,11.88
2022-10-23T20:23:52.697Z,21.85
2022-10-23T20:26:21.952Z,10.18
2022-10-23T20:28:53.664Z,12.88
2022-10-23T20:31:25.495Z,11.77
2022-10-23T20:33:53.640Z,13.13
2022-10-23T20:36:26.853Z,12.85
2022-10-23T20:38:55.013Z,11.60
2022-10-23T20:41:22.924Z,19.52
2022-10-23T20:43:50.080Z,11.05
2022-10-23T20:46:17.445Z,9.82
2022-10-23T20:48:45.184Z,15.70
2022-10-23T20:51:15.171Z,10.93
2022-10-23T20:53:43.028Z,14.10
2022-10-23T20:56:14.109Z,14.60
2022-10-23T20:58:41.249Z,11.30
2022-10-23T21:01:10.834Z,12.90
2022-10-23T21:03:38.676Z,16.75
2022-10-23T21:06:14.531Z,16.05
2022-10-23T21:08:42.080Z,14.50
2022-10-23T21:11:14.578Z,7.97
2022-10-23T21:13:43.576Z,12.40
2022-10-23T21:16:18.477Z,19.38
2022-10-23T21:18:47.035Z,14.40
2022-10-23T21:21:19.102Z,20.60
2022-10-23T21:23:47.642Z,7.85
2022-10-23T21:26:18.383Z,33.53
2022-10-23T21:28:55.664Z,13.23
2022-10-23T21:31:28.341Z,20.35
2022-10-23T21:33:55.448Z,20.75
2022-10-23T21:36:24.081Z,16.13
2022-10-23T21:38:54.099Z,18.63
2022-10-23T21:41:24.245Z,16.38
2022-10-23T21:44:03.357Z,15.77
2022-10-23T21:46:32.007Z,30.67
2022-10-23T21:48:59.799Z,18.37
2022-10-23T21:51:29.372Z,19.75
2022-10-23T21:53:57.144Z,17.20
2022-10-23T21:56:33.873Z,19.42
2022-10-23T21:59:02.552Z,21.92
2022-10-23T22:01:30.022Z,18.40
2022-10-23T22:03:57.780Z,10.63
2022-10-23T22:06:27.535Z,16.13
2022-10-23T22:08:56.989Z,15.02
2022-10-23T22:13:51.355Z,16.13
2022-10-23T22:16:19.372Z,11.00
2022-10-23T22:18:47.259Z,20.95
2022-10-23T22:21:17.215Z,16.05
2022-10-23T22:23:44.618Z,14.35
2022-10-23T22:26:31.822Z,14.65
2022-10-23T22:29:01.473Z,28.63
2022-10-23T22:31:31.496Z,15.65
2022-10-23T22:33:59.525Z,12.48
2022-10-23T22:36:27.046Z,20.17
2022-10-23T22:38:55.699Z,25.33
2022-10-23T22:41:23.793Z,16.10
2022-10-23T22:43:56.089Z,17.95
2022-10-23T22:46:24.233Z,13.48
2022-10-23T22:48:51.419Z,15.55
2022-10-23T22:51:20.922Z,12.48
2022-10-23T22:53:48.037Z,26.88
2022-10-23T22:56:17.457Z,14.55
2022-10-23T23:01:15.908Z,14.88
2022-10-23T23:03:43.714Z,14.40
2022-10-23T23:06:11.174Z,14.15
2022-10-23T23:08:39.615Z,16.90
2022-10-23T23:11:08.733Z,17.08
2022-10-23T23:13:35.789Z,26.23
2022-10-23T23:16:03.882Z,19.00
2022-10-23T23:18:31.415Z,17.38
2022-10-23T23:21:02.867Z,18.20
2022-10-23T23:23:30.613Z,16.27
2022-10-23T23:25:58.079Z,14.57
2022-10-23T23:28:25.168Z,23.13
2022-10-23T23:31:06.196Z,15.95
2022-10-23T23:33:33.518Z,17.45
2022-10-23T23:36:00.613Z,16.33
2022-10-23T23:38:27.766Z,13.98
2022-10-23T23:40:54.872Z,13.35
2022-10-23T23:43:22.015Z,17.85
2022-10-23T23:45:49.073Z,11.57
2022-10-23T23:48:16.166Z,20.52
2022-10-23T23:50:43.282Z,11.02
2022-10-23T23:53:10.633Z,17.55
2022-10-23T23:55:37.780Z,14.18
2022-10-23T23:58:04.999Z,16.73
